sensor_id;sensor_type;location;lat;lon;timestamp;temperature;humidity
9151;DHT22;4610;50.006;7.490;2022-10-16T00:00:45;12.40;99.90
9151;DHT22;4610;50.006;7.490;2022-10-16T00:03:12;12.40;99.90
9151;DHT22;4610;50.006;7.490;2022-10-16T00:05:41;12.40;99.90
9151;DHT22;4610;50.006;7.490;2022-10-16T00:08:09;12.40;99.90
9151;DHT22;4610;50.006;7.490;2022-10-16T00:10:36;12.40;99.90
9151;DHT22;4610;50.006;7.490;2022-10-16T00:13:03;12.40;99.90
9151;DHT22;4610;50.006;7.490;2022-10-16T00:15:33;12.40;99.90
9151;DHT22;4610;50.006;7.490;2022-10-16T00:18:01;12.40;99.90
9151;DHT22;4610;50.006;7.490;2022-10-16T00:20:28;12.30;99.90
9151;DHT22;4610;50.006;7.490;2022-10-16T00:22:56;12.30;99.90
9151;DHT22;4610;50.006;7.490;2022-10-16T00:25:23;12.30;99.90
9151;DHT22;4610;50.006;7.490;2022-10-16T00:27:50;12.30;99.90
9151;DHT22;4610;50.006;7.490;2022-10-16T00:30:17;12.30;99.90
9151;DHT22;4610;50.006;7.490;2022-10-16T00:32:45;12.20;99.90
9151;DHT22;4610;50.006;7.490;2022-10-16T00:35:11;12.20;99.90
9151;DHT22;4610;50.006;7.490;2022-10-16T00:37:38;12.20;99.90
9151;DHT22;4610;50.006;7.490;2022-10-16T00:40:06;12.30;99.90
9151;DHT22;4610;50.006;7.490;2022-10-16T00:42:33;12.30;99.90
9151;DHT22;4610;50.006;7.490;2022-10-16T00:44:59;12.30;99.90
9151;DHT22;4610;50.006;7.490;2022-10-16T00:47:28;12.30;99.90
9151;DHT22;4610;50.006;7.490;2022-10-16T00:49:59;12.30;99.90
9151;DHT22;4610;50.006;7.490;2022-10-16T00:52:28;12.30;99.90
9151;DHT22;4610;50.006;7.490;2022-10-16T00:54:55;12.40;99.90
9151;DHT22;4610;50.006;7.490;2022-10-16T00:57:23;12.40;99.90
9151;DHT22;4610;50.006;7.490;2022-10-16T00:59:50;12.40;99.90
9151;DHT22;4610;50.006;7.490;2022-10-16T01:02:17;12.40;99.90
9151;DHT22;4610;50.006;7.490;2022-10-16T01:04:47;12.40;99.90
9151;DHT22;4610;50.006;7.490;2022-10-16T01:07:24;12.40;99.90
9151;DHT22;4610;50.006;7.490;2022-10-16T01:10:02;12.30;99.90
9151;DHT22;4610;50.006;7.490;2022-10-16T01:12:38;12.20;99.90
9151;DHT22;4610;50.006;7.490;2022-10-16T01:15:11;12.20;99.90
9151;DHT22;4610;50.006;7.490;2022-10-16T01:17:45;12.20;99.90
9151;DHT22;4610;50.006;7.490;2022-10-16T01:20:22;12.30;99.90
9151;DHT22;4610;50.006;7.490;2022-10-16T01:23:04;12.40;99.90
9151;DHT22;4610;50.006;7.490;2022-10-16T01:25:46;12.40;99.90
9151;DHT22;4610;50.006;7.490;2022-10-16T01:28:19;12.50;99.90
9151;DHT22;4610;50.006;7.490;2022-10-16T01:30:52;12.50;99.90
9151;DHT22;4610;50.006;7.490;2022-10-16T01:33:23;12.50;99.90
9151;DHT22;4610;50.006;7.490;2022-10-16T01:35:54;12.50;99.90
9151;DHT22;4610;50.006;7.490;2022-10-16T01:38:28;12.50;99.90
9151;DHT22;4610;50.006;7.490;2022-10-16T01:40:59;12.50;99.90
9151;DHT22;4610;50.006;7.490;2022-10-16T01:43:33;12.50;99.90
9151;DHT22;4610;50.006;7.490;2022-10-16T01:46:02;12.50;99.90
9151;DHT22;4610;50.006;7.490;2022-10-16T01:48:31;12.50;99.90
9151;DHT22;4610;50.006;7.490;2022-10-16T01:51:00;12.50;99.90
9151;DHT22;4610;50.006;7.490;2022-10-16T01:53:29;12.40;99.90
9151;DHT22;4610;50.006;7.490;2022-10-16T01:55:58;12.30;99.90
9151;DHT22;4610;50.006;7.490;2022-10-16T01:58:28;12.30;99.90
9151;DHT22;4610;50.006;7.490;2022-10-16T02:01:00;12.40;99.90
9151;DHT22;4610;50.006;7.490;2022-10-16T02:03:28;12.40;99.90
9151;DHT22;4610;50.006;7.490;2022-10-16T02:05:56;12.40;99.90
9151;DHT22;4610;50.006;7.490;2022-10-16T02:08:27;12.50;99.90
9151;DHT22;4610;50.006;7.490;2022-10-16T02:10:55;12.50;99.90
9151;DHT22;4610;50.006;7.490;2022-10-16T02:13:26;12.50;99.90
9151;DHT22;4610;50.006;7.490;2022-10-16T02:15:55;12.60;99.90
9151;DHT22;4610;50.006;7.490;2022-10-16T02:18:22;12.60;99.90
9151;DHT22;4610;50.006;7.490;2022-10-16T02:20:55;12.50;99.90
9151;DHT22;4610;50.006;7.490;2022-10-16T02:23:30;12.50;99.90
9151;DHT22;4610;50.006;7.490;2022-10-16T02:26:03;12.50;99.90
9151;DHT22;4610;50.006;7.490;2022-10-16T02:28:37;12.50;99.90
9151;DHT22;4610;50.006;7.490;2022-10-16T02:31:09;12.50;99.90
9151;DHT22;4610;50.006;7.490;2022-10-16T02:33:37;12.50;99.90
9151;DHT22;4610;50.006;7.490;2022-10-16T02:36:04;12.60;99.90
9151;DHT22;4610;50.006;7.490;2022-10-16T02:38:32;12.60;99.90
9151;DHT22;4610;50.006;7.490;2022-10-16T02:40:59;12.50;99.90
9151;DHT22;4610;50.006;7.490;2022-10-16T02:43:26;12.40;99.90
9151;DHT22;4610;50.006;7.490;2022-10-16T02:45:53;12.50;99.90
9151;DHT22;4610;50.006;7.490;2022-10-16T02:48:21;12.50;99.90
9151;DHT22;4610;50.006;7.490;2022-10-16T02:50:48;12.60;99.90
9151;DHT22;4610;50.006;7.490;2022-10-16T02:53:14;12.60;99.90
9151;DHT22;4610;50.006;7.490;2022-10-16T02:55:41;12.60;99.90
9151;DHT22;4610;50.006;7.490;2022-10-16T02:58:08;12.60;99.90
9151;DHT22;4610;50.006;7.490;2022-10-16T03:00:34;12.70;99.90
9151;DHT22;4610;50.006;7.490;2022-10-16T03:03:01;12.70;99.90
9151;DHT22;4610;50.006;7.490;2022-10-16T03:05:30;12.70;99.90
9151;DHT22;4610;50.006;7.490;2022-10-16T03:07:57;12.70;99.90
9151;DHT22;4610;50.006;7.490;2022-10-16T03:10:25;12.60;99.90
9151;DHT22;4610;50.006;7.490;2022-10-16T03:12:52;12.60;99.90
9151;DHT22;4610;50.006;7.490;2022-10-16T03:15:19;12.60;99.90
9151;DHT22;4610;50.006;7.490;2022-10-16T03:17:45;12.60;99.90
9151;DHT22;4610;50.006;7.490;2022-10-16T03:20:12;12.60;99.90
9151;DHT22;4610;50.006;7.490;2022-10-16T03:22:40;12.60;99.90
9151;DHT22;4610;50.006;7.490;2022-10-16T03:25:07;12.60;99.90
9151;DHT22;4610;50.006;7.490;2022-10-16T03:27:34;12.50;99.90
9151;DHT22;4610;50.006;7.490;2022-10-16T03:30:01;12.30;99.90
9151;DHT22;4610;50.006;7.490;2022-10-16T03:32:28;12.40;99.90
9151;DHT22;4610;50.006;7.490;2022-10-16T03:34:54;12.40;99.90
9151;DHT22;4610;50.006;7.490;2022-10-16T03:37:22;12.40;99.90
9151;DHT22;4610;50.006;7.490;2022-10-16T03:39:51;12.50;99.90
9151;DHT22;4610;50.006;7.490;2022-10-16T03:42:17;12.50;99.90
9151;DHT22;4610;50.006;7.490;2022-10-16T03:44:44;12.60;99.90
9151;DHT22;4610;50.006;7.490;2022-10-16T03:47:11;12.70;99.90
9151;DHT22;4610;50.006;7.490;2022-10-16T03:49:38;12.70;99.90
9151;DHT22;4610;50.006;7.490;2022-10-16T03:52:05;12.80;99.90
9151;DHT22;4610;50.006;7.490;2022-10-16T03:54:31;12.80;99.90
9151;DHT22;4610;50.006;7.490;2022-10-16T03:56:59;12.80;99.90
9151;DHT22;4610;50.006;7.490;2022-10-16T03:59:26;12.80;99.90
9151;DHT22;4610;50.006;7.490;2022-10-16T04:01:53;12.80;99.90
9151;DHT22;4610;50.006;7.490;2022-10-16T04:04:19;12.90;99.90
9151;DHT22;4610;50.006;7.490;2022-10-16T04:06:46;12.90;99.90
9151;DHT22;4610;50.006;7.490;2022-10-16T04:09:13;12.90;99.90
9151;DHT22;4610;50.006;7.490;2022-10-16T04:11:40;12.90;99.90
9151;DHT22;4610;50.006;7.490;2022-10-16T04:14:08;12.90;99.90
9151;DHT22;4610;50.006;7.490;2022-10-16T04:16:35;12.80;99.90
9151;DHT22;4610;50.006;7.490;2022-10-16T04:19:02;12.70;99.90
9151;DHT22;4610;50.006;7.490;2022-10-16T04:21:28;12.80;99.90
9151;DHT22;4610;50.006;7.490;2022-10-16T04:23:55;12.90;99.90
9151;DHT22;4610;50.006;7.490;2022-10-16T04:26:22;12.90;99.90
9151;DHT22;4610;50.006;7.490;2022-10-16T04:28:49;12.90;99.90
9151;DHT22;4610;50.006;7.490;2022-10-16T04:31:17;13.00;99.90
9151;DHT22;4610;50.006;7.490;2022-10-16T04:33:43;13.00;99.90
9151;DHT22;4610;50.006;7.490;2022-10-16T04:36:10;13.00;99.90
9151;DHT22;4610;50.006;7.490;2022-10-16T04:38:37;13.00;99.90
9151;DHT22;4610;50.006;7.490;2022-10-16T04:41:05;13.00;99.90
9151;DHT22;4610;50.006;7.490;2022-10-16T04:43:32;13.10;99.90
9151;DHT22;4610;50.006;7.490;2022-10-16T04:45:59;13.10;99.90
9151;DHT22;4610;50.006;7.490;2022-10-16T04:48:28;13.00;99.90
9151;DHT22;4610;50.006;7.490;2022-10-16T04:50:55;13.10;99.90
9151;DHT22;4610;50.006;7.490;2022-10-16T04:53:22;13.10;99.90
9151;DHT22;4610;50.006;7.490;2022-10-16T04:55:49;13.10;99.90
9151;DHT22;4610;50.006;7.490;2022-10-16T04:58:16;13.10;99.90
9151;DHT22;4610;50.006;7.490;2022-10-16T05:00:44;13.10;99.90
9151;DHT22;4610;50.006;7.490;2022-10-16T05:03:11;13.00;99.90
9151;DHT22;4610;50.006;7.490;2022-10-16T05:05:42;13.00;99.90
9151;DHT22;4610;50.006;7.490;2022-10-16T05:08:10;13.00;99.90
9151;DHT22;4610;50.006;7.490;2022-10-16T05:10:36;13.00;99.90
9151;DHT22;4610;50.006;7.490;2022-10-16T05:13:03;13.10;99.90
9151;DHT22;4610;50.006;7.490;2022-10-16T05:15:30;13.10;99.90
9151;DHT22;4610;50.006;7.490;2022-10-16T05:17:56;13.10;99.90
9151;DHT22;4610;50.006;7.490;2022-10-16T05:20:23;13.10;99.90
9151;DHT22;4610;50.006;7.490;2022-10-16T05:22:51;13.10;99.90
9151;DHT22;4610;50.006;7.490;2022-10-16T05:25:18;13.10;99.90
9151;DHT22;4610;50.006;7.490;2022-10-16T05:27:47;13.20;99.90
9151;DHT22;4610;50.006;7.490;2022-10-16T05:30:14;13.20;99.90
9151;DHT22;4610;50.006;7.490;2022-10-16T05:32:41;13.20;99.90
9151;DHT22;4610;50.006;7.490;2022-10-16T05:35:08;13.20;99.90
9151;DHT22;4610;50.006;7.490;2022-10-16T05:37:35;13.20;99.90
9151;DHT22;4610;50.006;7.490;2022-10-16T05:40:04;13.20;99.90
9151;DHT22;4610;50.006;7.490;2022-10-16T05:42:30;13.10;99.90
9151;DHT22;4610;50.006;7.490;2022-10-16T05:44:57;13.20;99.90
9151;DHT22;4610;50.006;7.490;2022-10-16T05:47:24;13.20;99.90
9151;DHT22;4610;50.006;7.490;2022-10-16T05:49:50;13.20;99.90
9151;DHT22;4610;50.006;7.490;2022-10-16T05:52:17;13.20;99.90
9151;DHT22;4610;50.006;7.490;2022-10-16T05:54:44;13.10;99.90
9151;DHT22;4610;50.006;7.490;2022-10-16T05:57:12;13.10;99.90
9151;DHT22;4610;50.006;7.490;2022-10-16T05:59:39;13.10;99.90
9151;DHT22;4610;50.006;7.490;2022-10-16T06:02:07;13.10;99.90
9151;DHT22;4610;50.006;7.490;2022-10-16T06:04:35;13.20;99.90
9151;DHT22;4610;50.006;7.490;2022-10-16T06:07:01;13.20;99.90
9151;DHT22;4610;50.006;7.490;2022-10-16T06:09:28;13.20;99.90
9151;DHT22;4610;50.006;7.490;2022-10-16T06:11:55;13.20;99.90
9151;DHT22;4610;50.006;7.490;2022-10-16T06:14:23;13.30;99.90
9151;DHT22;4610;50.006;7.490;2022-10-16T06:16:50;13.20;99.90
9151;DHT22;4610;50.006;7.490;2022-10-16T06:19:16;13.20;99.90
9151;DHT22;4610;50.006;7.490;2022-10-16T06:21:44;13.20;99.90
9151;DHT22;4610;50.006;7.490;2022-10-16T06:24:10;13.30;99.90
9151;DHT22;4610;50.006;7.490;2022-10-16T06:26:37;13.30;99.90
9151;DHT22;4610;50.006;7.490;2022-10-16T06:29:04;13.30;99.90
9151;DHT22;4610;50.006;7.490;2022-10-16T06:31:32;13.30;99.90
9151;DHT22;4610;50.006;7.490;2022-10-16T06:34:00;13.40;99.90
9151;DHT22;4610;50.006;7.490;2022-10-16T06:36:27;13.40;99.90
9151;DHT22;4610;50.006;7.490;2022-10-16T06:38:54;13.40;99.90
9151;DHT22;4610;50.006;7.490;2022-10-16T06:41:22;13.40;99.90
9151;DHT22;4610;50.006;7.490;2022-10-16T06:43:49;13.40;99.90
9151;DHT22;4610;50.006;7.490;2022-10-16T06:46:17;13.30;99.90
9151;DHT22;4610;50.006;7.490;2022-10-16T06:48:46;13.40;99.90
9151;DHT22;4610;50.006;7.490;2022-10-16T06:51:15;13.40;99.90
9151;DHT22;4610;50.006;7.490;2022-10-16T06:53:44;13.50;99.90
9151;DHT22;4610;50.006;7.490;2022-10-16T06:56:12;13.50;99.90
9151;DHT22;4610;50.006;7.490;2022-10-16T06:58:40;13.60;99.90
9151;DHT22;4610;50.006;7.490;2022-10-16T07:01:07;13.60;99.90
9151;DHT22;4610;50.006;7.490;2022-10-16T07:03:36;13.60;99.90
9151;DHT22;4610;50.006;7.490;2022-10-16T07:06:06;13.60;99.90
9151;DHT22;4610;50.006;7.490;2022-10-16T07:08:34;13.70;99.90
9151;DHT22;4610;50.006;7.490;2022-10-16T07:11:02;13.70;99.90
9151;DHT22;4610;50.006;7.490;2022-10-16T07:13:29;13.60;99.90
9151;DHT22;4610;50.006;7.490;2022-10-16T07:15:55;13.50;99.90
9151;DHT22;4610;50.006;7.490;2022-10-16T07:18:22;13.40;99.90
9151;DHT22;4610;50.006;7.490;2022-10-16T07:20:52;13.30;99.90
9151;DHT22;4610;50.006;7.490;2022-10-16T07:23:20;13.40;99.90
9151;DHT22;4610;50.006;7.490;2022-10-16T07:25:53;13.50;99.90
9151;DHT22;4610;50.006;7.490;2022-10-16T07:28:20;13.60;99.90
9151;DHT22;4610;50.006;7.490;2022-10-16T07:30:47;13.70;99.90
9151;DHT22;4610;50.006;7.490;2022-10-16T07:33:14;13.70;99.90
9151;DHT22;4610;50.006;7.490;2022-10-16T07:35:48;13.80;99.90
9151;DHT22;4610;50.006;7.490;2022-10-16T07:38:14;13.80;99.90
9151;DHT22;4610;50.006;7.490;2022-10-16T07:40:43;13.80;99.90
9151;DHT22;4610;50.006;7.490;2022-10-16T07:43:09;13.80;99.90
9151;DHT22;4610;50.006;7.490;2022-10-16T07:45:36;13.90;99.90
9151;DHT22;4610;50.006;7.490;2022-10-16T07:48:03;13.90;99.90
9151;DHT22;4610;50.006;7.490;2022-10-16T07:50:30;13.90;99.90
9151;DHT22;4610;50.006;7.490;2022-10-16T07:52:57;13.90;99.90
9151;DHT22;4610;50.006;7.490;2022-10-16T07:55:24;13.90;99.90
9151;DHT22;4610;50.006;7.490;2022-10-16T07:57:52;14.00;99.90
9151;DHT22;4610;50.006;7.490;2022-10-16T08:00:18;14.00;99.90
9151;DHT22;4610;50.006;7.490;2022-10-16T08:02:45;14.00;99.90
9151;DHT22;4610;50.006;7.490;2022-10-16T08:05:12;14.10;99.90
9151;DHT22;4610;50.006;7.490;2022-10-16T08:07:39;14.10;99.90
9151;DHT22;4610;50.006;7.490;2022-10-16T08:10:06;14.10;99.90
9151;DHT22;4610;50.006;7.490;2022-10-16T08:12:33;14.10;99.90
9151;DHT22;4610;50.006;7.490;2022-10-16T08:15:01;14.20;99.90
9151;DHT22;4610;50.006;7.490;2022-10-16T08:17:28;14.20;99.90
9151;DHT22;4610;50.006;7.490;2022-10-16T08:19:54;14.30;99.90
9151;DHT22;4610;50.006;7.490;2022-10-16T08:22:21;14.40;99.90
9151;DHT22;4610;50.006;7.490;2022-10-16T08:24:48;14.70;99.90
9151;DHT22;4610;50.006;7.490;2022-10-16T08:27:14;14.90;99.90
9151;DHT22;4610;50.006;7.490;2022-10-16T08:29:41;15.10;99.90
9151;DHT22;4610;50.006;7.490;2022-10-16T08:32:09;15.30;99.90
9151;DHT22;4610;50.006;7.490;2022-10-16T08:34:36;15.30;99.90
9151;DHT22;4610;50.006;7.490;2022-10-16T08:37:03;15.50;99.90
9151;DHT22;4610;50.006;7.490;2022-10-16T08:39:29;15.60;99.90
9151;DHT22;4610;50.006;7.490;2022-10-16T08:42:20;15.60;99.90
9151;DHT22;4610;50.006;7.490;2022-10-16T08:45:15;15.60;99.90
9151;DHT22;4610;50.006;7.490;2022-10-16T08:47:53;15.60;99.90
9151;DHT22;4610;50.006;7.490;2022-10-16T08:50:24;15.50;99.90
9151;DHT22;4610;50.006;7.490;2022-10-16T08:52:53;15.50;99.90
9151;DHT22;4610;50.006;7.490;2022-10-16T08:55:30;15.40;99.90
9151;DHT22;4610;50.006;7.490;2022-10-16T08:57:59;15.40;99.90
9151;DHT22;4610;50.006;7.490;2022-10-16T09:00:26;15.40;99.90
9151;DHT22;4610;50.006;7.490;2022-10-16T09:03:03;15.50;99.90
9151;DHT22;4610;50.006;7.490;2022-10-16T09:05:46;15.60;99.90
9151;DHT22;4610;50.006;7.490;2022-10-16T09:08:20;15.70;99.90
9151;DHT22;4610;50.006;7.490;2022-10-16T09:10:56;15.70;99.90
9151;DHT22;4610;50.006;7.490;2022-10-16T09:13:28;15.70;99.90
9151;DHT22;4610;50.006;7.490;2022-10-16T09:16:01;15.80;99.90
9151;DHT22;4610;50.006;7.490;2022-10-16T09:18:37;15.80;99.90
9151;DHT22;4610;50.006;7.490;2022-10-16T09:21:12;15.80;99.90
9151;DHT22;4610;50.006;7.490;2022-10-16T09:23:40;15.80;99.90
9151;DHT22;4610;50.006;7.490;2022-10-16T09:26:11;15.90;99.90
9151;DHT22;4610;50.006;7.490;2022-10-16T09:28:39;15.90;99.90
9151;DHT22;4610;50.006;7.490;2022-10-16T09:31:13;15.90;99.90
9151;DHT22;4610;50.006;7.490;2022-10-16T09:33:44;15.90;99.90
9151;DHT22;4610;50.006;7.490;2022-10-16T09:36:13;16.00;99.90
9151;DHT22;4610;50.006;7.490;2022-10-16T09:38:40;16.20;99.90
9151;DHT22;4610;50.006;7.490;2022-10-16T09:41:15;16.40;99.90
9151;DHT22;4610;50.006;7.490;2022-10-16T09:43:47;16.70;99.90
9151;DHT22;4610;50.006;7.490;2022-10-16T09:46:24;16.90;99.90
9151;DHT22;4610;50.006;7.490;2022-10-16T09:48:54;17.20;99.90
9151;DHT22;4610;50.006;7.490;2022-10-16T09:51:23;17.00;99.90
9151;DHT22;4610;50.006;7.490;2022-10-16T09:53:55;17.10;99.90
9151;DHT22;4610;50.006;7.490;2022-10-16T09:56:24;17.10;99.90
9151;DHT22;4610;50.006;7.490;2022-10-16T09:58:52;17.10;99.90
9151;DHT22;4610;50.006;7.490;2022-10-16T10:01:21;16.90;99.90
9151;DHT22;4610;50.006;7.490;2022-10-16T10:03:49;17.00;99.90
9151;DHT22;4610;50.006;7.490;2022-10-16T10:06:22;17.00;99.90
9151;DHT22;4610;50.006;7.490;2022-10-16T10:08:57;17.00;99.90
9151;DHT22;4610;50.006;7.490;2022-10-16T10:11:45;16.90;99.90
9151;DHT22;4610;50.006;7.490;2022-10-16T10:14:20;16.90;99.90
9151;DHT22;4610;50.006;7.490;2022-10-16T10:16:48;16.80;99.90
9151;DHT22;4610;50.006;7.490;2022-10-16T10:19:16;16.80;99.90
9151;DHT22;4610;50.006;7.490;2022-10-16T10:21:45;16.80;99.90
9151;DHT22;4610;50.006;7.490;2022-10-16T10:24:13;16.90;99.90
9151;DHT22;4610;50.006;7.490;2022-10-16T10:26:47;17.00;99.90
9151;DHT22;4610;50.006;7.490;2022-10-16T10:29:24;17.00;99.90
9151;DHT22;4610;50.006;7.490;2022-10-16T10:32:02;17.10;99.90
9151;DHT22;4610;50.006;7.490;2022-10-16T10:34:50;17.00;99.90
9151;DHT22;4610;50.006;7.490;2022-10-16T10:37:31;17.30;99.90
9151;DHT22;4610;50.006;7.490;2022-10-16T10:40:11;17.00;99.90
9151;DHT22;4610;50.006;7.490;2022-10-16T10:42:44;17.20;99.90
9151;DHT22;4610;50.006;7.490;2022-10-16T10:45:22;17.20;99.90
9151;DHT22;4610;50.006;7.490;2022-10-16T10:48:02;17.30;99.90
9151;DHT22;4610;50.006;7.490;2022-10-16T10:50:38;17.40;99.90
9151;DHT22;4610;50.006;7.490;2022-10-16T10:53:17;17.50;99.90
9151;DHT22;4610;50.006;7.490;2022-10-16T10:55:48;17.60;99.90
9151;DHT22;4610;50.006;7.490;2022-10-16T11:01:12;17.50;99.90
9151;DHT22;4610;50.006;7.490;2022-10-16T11:04:07;17.40;99.90
9151;DHT22;4610;50.006;7.490;2022-10-16T11:06:42;17.30;99.90
9151;DHT22;4610;50.006;7.490;2022-10-16T11:09:15;17.30;99.90
9151;DHT22;4610;50.006;7.490;2022-10-16T11:11:45;17.30;99.90
9151;DHT22;4610;50.006;7.490;2022-10-16T11:14:18;17.30;99.90
9151;DHT22;4610;50.006;7.490;2022-10-16T11:16:50;17.50;99.90
9151;DHT22;4610;50.006;7.490;2022-10-16T11:19:28;17.60;99.90
9151;DHT22;4610;50.006;7.490;2022-10-16T11:22:02;17.80;99.90
9151;DHT22;4610;50.006;7.490;2022-10-16T11:24:39;18.10;99.90
9151;DHT22;4610;50.006;7.490;2022-10-16T11:27:09;18.30;99.90
9151;DHT22;4610;50.006;7.490;2022-10-16T11:29:44;18.30;99.90
9151;DHT22;4610;50.006;7.490;2022-10-16T11:32:20;18.30;99.90
9151;DHT22;4610;50.006;7.490;2022-10-16T11:34:51;18.40;99.90
9151;DHT22;4610;50.006;7.490;2022-10-16T11:37:24;18.70;99.90
9151;DHT22;4610;50.006;7.490;2022-10-16T11:39:56;18.80;99.90
9151;DHT22;4610;50.006;7.490;2022-10-16T11:42:30;19.00;99.90
9151;DHT22;4610;50.006;7.490;2022-10-16T11:45:03;19.00;99.90
9151;DHT22;4610;50.006;7.490;2022-10-16T11:47:36;19.00;99.90
9151;DHT22;4610;50.006;7.490;2022-10-16T11:50:17;19.10;99.90
9151;DHT22;4610;50.006;7.490;2022-10-16T11:52:48;19.10;99.90
9151;DHT22;4610;50.006;7.490;2022-10-16T11:55:23;19.00;99.90
9151;DHT22;4610;50.006;7.490;2022-10-16T11:57:54;18.90;99.90
9151;DHT22;4610;50.006;7.490;2022-10-16T12:00:25;19.00;99.90
9151;DHT22;4610;50.006;7.490;2022-10-16T12:02:58;19.10;99.90
9151;DHT22;4610;50.006;7.490;2022-10-16T12:05:32;19.10;99.90
9151;DHT22;4610;50.006;7.490;2022-10-16T12:08:06;19.10;99.90
9151;DHT22;4610;50.006;7.490;2022-10-16T12:10:37;19.00;99.90
9151;DHT22;4610;50.006;7.490;2022-10-16T12:13:05;18.90;99.90
9151;DHT22;4610;50.006;7.490;2022-10-16T12:15:33;18.90;99.90
9151;DHT22;4610;50.006;7.490;2022-10-16T12:18:01;19.00;99.90
9151;DHT22;4610;50.006;7.490;2022-10-16T12:20:29;19.10;99.90
9151;DHT22;4610;50.006;7.490;2022-10-16T12:22:59;19.20;99.90
9151;DHT22;4610;50.006;7.490;2022-10-16T12:25:29;19.20;99.90
9151;DHT22;4610;50.006;7.490;2022-10-16T12:28:03;19.30;99.90
9151;DHT22;4610;50.006;7.490;2022-10-16T12:30:32;19.30;99.90
9151;DHT22;4610;50.006;7.490;2022-10-16T12:33:02;19.30;99.90
9151;DHT22;4610;50.006;7.490;2022-10-16T12:35:31;19.20;99.90
9151;DHT22;4610;50.006;7.490;2022-10-16T12:38:07;19.00;99.90
9151;DHT22;4610;50.006;7.490;2022-10-16T12:40:36;18.80;99.90
9151;DHT22;4610;50.006;7.490;2022-10-16T12:43:25;18.80;99.90
9151;DHT22;4610;50.006;7.490;2022-10-16T12:46:01;18.80;99.90
9151;DHT22;4610;50.006;7.490;2022-10-16T12:48:29;18.90;99.90
9151;DHT22;4610;50.006;7.490;2022-10-16T12:50:56;18.90;99.90
9151;DHT22;4610;50.006;7.490;2022-10-16T12:53:25;18.90;99.90
9151;DHT22;4610;50.006;7.490;2022-10-16T12:56:02;18.80;99.90
9151;DHT22;4610;50.006;7.490;2022-10-16T12:58:46;18.90;99.90
9151;DHT22;4610;50.006;7.490;2022-10-16T13:01:25;18.90;99.90
9151;DHT22;4610;50.006;7.490;2022-10-16T13:04:06;18.80;99.90
9151;DHT22;4610;50.006;7.490;2022-10-16T13:06:43;18.80;99.90
9151;DHT22;4610;50.006;7.490;2022-10-16T13:09:30;18.70;99.90
9151;DHT22;4610;50.006;7.490;2022-10-16T13:12:12;18.70;99.90
9151;DHT22;4610;50.006;7.490;2022-10-16T13:15:04;18.70;99.90
9151;DHT22;4610;50.006;7.490;2022-10-16T13:17:40;18.70;99.90
9151;DHT22;4610;50.006;7.490;2022-10-16T13:20:15;18.70;99.90
9151;DHT22;4610;50.006;7.490;2022-10-16T13:22:49;18.70;99.90
9151;DHT22;4610;50.006;7.490;2022-10-16T13:25:23;18.60;99.90
9151;DHT22;4610;50.006;7.490;2022-10-16T13:28:05;18.60;99.90
9151;DHT22;4610;50.006;7.490;2022-10-16T13:30:37;18.50;99.90
9151;DHT22;4610;50.006;7.490;2022-10-16T13:33:10;18.50;99.90
9151;DHT22;4610;50.006;7.490;2022-10-16T13:35:48;18.50;99.90
9151;DHT22;4610;50.006;7.490;2022-10-16T13:38:18;18.50;99.90
9151;DHT22;4610;50.006;7.490;2022-10-16T13:40:51;18.50;99.90
9151;DHT22;4610;50.006;7.490;2022-10-16T13:43:20;18.50;99.90
9151;DHT22;4610;50.006;7.490;2022-10-16T13:46:00;18.60;99.90
9151;DHT22;4610;50.006;7.490;2022-10-16T13:48:27;18.60;99.90
9151;DHT22;4610;50.006;7.490;2022-10-16T13:51:03;18.60;99.90
9151;DHT22;4610;50.006;7.490;2022-10-16T13:53:34;18.70;99.90
9151;DHT22;4610;50.006;7.490;2022-10-16T13:56:03;18.70;99.90
9151;DHT22;4610;50.006;7.490;2022-10-16T13:58:30;18.70;99.90
9151;DHT22;4610;50.006;7.490;2022-10-16T14:01:01;18.80;99.90
9151;DHT22;4610;50.006;7.490;2022-10-16T14:03:28;18.70;99.90
9151;DHT22;4610;50.006;7.490;2022-10-16T14:05:58;18.70;99.90
9151;DHT22;4610;50.006;7.490;2022-10-16T14:08:27;18.80;99.90
9151;DHT22;4610;50.006;7.490;2022-10-16T14:10:56;18.80;99.90
9151;DHT22;4610;50.006;7.490;2022-10-16T14:13:30;18.80;99.90
9151;DHT22;4610;50.006;7.490;2022-10-16T14:16:02;18.80;99.90
9151;DHT22;4610;50.006;7.490;2022-10-16T14:18:32;18.80;99.90
9151;DHT22;4610;50.006;7.490;2022-10-16T14:21:03;18.70;99.90
9151;DHT22;4610;50.006;7.490;2022-10-16T14:23:34;18.70;99.90
9151;DHT22;4610;50.006;7.490;2022-10-16T14:26:12;18.60;99.90
9151;DHT22;4610;50.006;7.490;2022-10-16T14:28:40;18.50;99.90
9151;DHT22;4610;50.006;7.490;2022-10-16T14:31:25;18.40;99.90
9151;DHT22;4610;50.006;7.490;2022-10-16T14:33:52;18.30;99.90
9151;DHT22;4610;50.006;7.490;2022-10-16T14:36:20;18.30;99.90
9151;DHT22;4610;50.006;7.490;2022-10-16T14:38:51;18.30;99.90
9151;DHT22;4610;50.006;7.490;2022-10-16T14:41:21;18.30;99.90
9151;DHT22;4610;50.006;7.490;2022-10-16T14:43:51;18.30;99.90
9151;DHT22;4610;50.006;7.490;2022-10-16T14:46:21;17.50;99.90
9151;DHT22;4610;50.006;7.490;2022-10-16T14:49:02;18.20;99.90
9151;DHT22;4610;50.006;7.490;2022-10-16T14:51:30;18.20;99.90
9151;DHT22;4610;50.006;7.490;2022-10-16T14:53:57;18.20;99.90
9151;DHT22;4610;50.006;7.490;2022-10-16T14:56:25;18.10;99.90
9151;DHT22;4610;50.006;7.490;2022-10-16T14:58:55;18.10;99.90
9151;DHT22;4610;50.006;7.490;2022-10-16T15:01:23;18.00;99.90
9151;DHT22;4610;50.006;7.490;2022-10-16T15:03:50;17.90;99.90
9151;DHT22;4610;50.006;7.490;2022-10-16T15:06:19;17.90;99.90
9151;DHT22;4610;50.006;7.490;2022-10-16T15:08:46;17.90;99.90
9151;DHT22;4610;50.006;7.490;2022-10-16T15:11:14;17.80;99.90
9151;DHT22;4610;50.006;7.490;2022-10-16T15:13:42;17.70;99.90
9151;DHT22;4610;50.006;7.490;2022-10-16T15:16:11;17.70;99.90
9151;DHT22;4610;50.006;7.490;2022-10-16T15:18:40;17.80;99.90
9151;DHT22;4610;50.006;7.490;2022-10-16T15:21:07;17.60;99.90
9151;DHT22;4610;50.006;7.490;2022-10-16T15:23:33;17.60;99.90
9151;DHT22;4610;50.006;7.490;2022-10-16T15:26:00;17.60;99.90
9151;DHT22;4610;50.006;7.490;2022-10-16T15:28:27;17.50;99.90
9151;DHT22;4610;50.006;7.490;2022-10-16T15:30:55;17.50;99.90
9151;DHT22;4610;50.006;7.490;2022-10-16T15:33:23;16.50;99.90
9151;DHT22;4610;50.006;7.490;2022-10-16T15:35:54;17.50;99.90
9151;DHT22;4610;50.006;7.490;2022-10-16T15:38:22;17.40;99.90
9151;DHT22;4610;50.006;7.490;2022-10-16T15:40:49;17.40;99.90
9151;DHT22;4610;50.006;7.490;2022-10-16T15:43:16;17.40;99.90
9151;DHT22;4610;50.006;7.490;2022-10-16T15:45:44;17.40;99.90
9151;DHT22;4610;50.006;7.490;2022-10-16T15:48:11;17.40;99.90
9151;DHT22;4610;50.006;7.490;2022-10-16T15:50:39;17.30;99.90
9151;DHT22;4610;50.006;7.490;2022-10-16T15:53:07;17.30;99.90
9151;DHT22;4610;50.006;7.490;2022-10-16T15:55:34;17.30;99.90
9151;DHT22;4610;50.006;7.490;2022-10-16T15:58:03;18.20;99.90
9151;DHT22;4610;50.006;7.490;2022-10-16T16:00:30;17.20;99.90
9151;DHT22;4610;50.006;7.490;2022-10-16T16:02:57;17.20;99.90
9151;DHT22;4610;50.006;7.490;2022-10-16T16:05:24;17.20;99.90
9151;DHT22;4610;50.006;7.490;2022-10-16T16:07:51;17.10;99.90
9151;DHT22;4610;50.006;7.490;2022-10-16T16:10:19;17.10;99.90
9151;DHT22;4610;50.006;7.490;2022-10-16T16:12:47;17.00;99.90
9151;DHT22;4610;50.006;7.490;2022-10-16T16:15:18;17.00;99.90
9151;DHT22;4610;50.006;7.490;2022-10-16T16:17:45;17.00;99.90
9151;DHT22;4610;50.006;7.490;2022-10-16T16:20:12;17.00;99.90
9151;DHT22;4610;50.006;7.490;2022-10-16T16:22:39;16.90;99.90